createdAt,value
2019-05-30T00:00:20.251Z,58.40
2019-05-30T00:02:49.554Z,58.50
2019-05-30T00:05:18.942Z,58.60
2019-05-30T00:07:48.233Z,58.80
2019-05-30T00:10:17.464Z,58.90
2019-05-30T00:12:46.757Z,59.20
2019-05-30T00:15:16.559Z,59.00
2019-05-30T00:17:46.036Z,59.30
2019-05-30T00:20:15.364Z,59.40
2019-05-30T00:22:44.660Z,59.50
2019-05-30T00:25:13.853Z,59.50
2019-05-30T00:27:43.111Z,59.60
2019-05-30T00:30:23.797Z,59.70
2019-05-30T00:32:43.477Z,59.70
2019-05-30T00:35:12.839Z,59.60
2019-05-30T00:37:42.160Z,59.60
2019-05-30T00:40:11.669Z,59.60
2019-05-30T00:42:40.991Z,59.70
2019-05-30T00:45:20.407Z,59.60
2019-05-30T00:47:41.619Z,59.60
2019-05-30T00:50:11.694Z,59.60
2019-05-30T00:52:40.907Z,59.60
2019-05-30T00:55:10.286Z,59.70
2019-05-30T00:57:39.501Z,59.80
2019-05-30T01:00:09.035Z,59.80
2019-05-30T01:02:38.393Z,59.80
2019-05-30T01:05:08.301Z,59.90
2019-05-30T01:07:37.718Z,59.90
2019-05-30T01:10:08.008Z,60.10
2019-05-30T01:12:37.335Z,60.20
2019-05-30T01:15:07.450Z,60.10
2019-05-30T01:17:36.925Z,60.20
2019-05-30T01:20:07.587Z,60.20
2019-05-30T01:22:36.936Z,60.30
2019-05-30T01:25:07.898Z,60.40
2019-05-30T01:27:37.396Z,60.60
2019-05-30T01:30:07.934Z,61.00
2019-05-30T01:32:37.295Z,60.80
2019-05-30T01:35:08.312Z,61.00
2019-05-30T01:37:37.587Z,60.90
2019-05-30T01:40:08.678Z,60.90
2019-05-30T01:42:38.009Z,61.00
2019-05-30T01:45:08.729Z,61.00
2019-05-30T01:47:38.052Z,60.90
2019-05-30T01:50:09.251Z,60.80
2019-05-30T01:52:38.556Z,61.00
2019-05-30T01:55:08.994Z,60.90
2019-05-30T01:57:38.752Z,60.80
2019-05-30T02:00:20.004Z,60.70
2019-05-30T02:02:40.457Z,60.70
2019-05-30T02:05:09.968Z,60.70
2019-05-30T02:07:39.239Z,60.50
2019-05-30T02:10:10.044Z,60.50
2019-05-30T02:12:39.523Z,60.70
2019-05-30T02:15:10.058Z,61.00
2019-05-30T02:17:39.437Z,60.90
2019-05-30T02:20:10.001Z,60.90
2019-05-30T02:22:39.431Z,60.90
2019-05-30T02:25:10.381Z,60.80
2019-05-30T02:27:39.754Z,61.00
2019-05-30T02:30:12.420Z,61.10
2019-05-30T02:32:41.175Z,61.20
2019-05-30T02:35:12.759Z,61.40
2019-05-30T02:37:41.497Z,61.50
2019-05-30T02:40:14.984Z,61.80
2019-05-30T02:42:42.078Z,62.00
2019-05-30T02:45:12.530Z,62.40
2019-05-30T02:47:42.069Z,63.20
2019-05-30T02:50:13.699Z,64.30
2019-05-30T02:52:42.403Z,64.50
2019-05-30T02:55:13.511Z,64.80
2019-05-30T02:57:43.179Z,65.60
2019-05-30T03:00:16.576Z,66.00
2019-05-30T03:02:43.556Z,66.30
2019-05-30T03:05:15.046Z,66.90
2019-05-30T03:07:43.973Z,67.30
2019-05-30T03:10:15.146Z,67.40
2019-05-30T03:12:44.736Z,67.70
2019-05-30T03:15:15.579Z,67.70
2019-05-30T03:17:45.284Z,68.00
2019-05-30T03:20:22.852Z,68.10
2019-05-30T03:22:45.725Z,68.20
2019-05-30T03:25:16.112Z,68.40
2019-05-30T03:27:45.691Z,68.50
2019-05-30T03:30:25.925Z,68.60
2019-05-30T03:33:05.975Z,68.90
2019-05-30T03:35:27.815Z,69.20
2019-05-30T03:37:48.060Z,69.20
2019-05-30T03:40:18.461Z,69.20
2019-05-30T03:42:48.326Z,69.50
2019-05-30T03:45:17.748Z,70.30
2019-05-30T03:47:50.729Z,71.00
2019-05-30T03:50:23.318Z,71.10
2019-05-30T03:52:53.482Z,72.00
2019-05-30T03:55:23.152Z,71.90
2019-05-30T03:57:59.234Z,72.00
2019-05-30T04:00:38.739Z,72.10
2019-05-30T04:03:37.686Z,72.50
2019-05-30T04:06:11.781Z,73.30
2019-05-30T04:08:43.573Z,74.00
2019-05-30T04:11:16.829Z,74.40
2019-05-30T04:13:50.424Z,74.80
2019-05-30T04:16:19.908Z,75.20
2019-05-30T04:18:49.233Z,76.00
2019-05-30T04:21:21.333Z,76.10
2019-05-30T04:23:49.505Z,76.20
2019-05-30T04:26:18.806Z,76.30
2019-05-30T04:28:48.097Z,76.20
2019-05-30T04:31:19.196Z,76.20
2019-05-30T04:33:48.486Z,76.20
2019-05-30T04:36:19.091Z,76.30
2019-05-30T04:38:48.673Z,76.90
2019-05-30T04:41:19.055Z,77.10
2019-05-30T04:43:48.954Z,77.00
2019-05-30T04:46:19.627Z,77.70
2019-05-30T04:48:49.165Z,77.60
2019-05-30T04:51:20.823Z,77.60
2019-05-30T04:53:49.468Z,77.60
2019-05-30T04:56:19.399Z,77.90
2019-05-30T04:58:49.662Z,77.80
2019-05-30T05:01:20.258Z,77.80
2019-05-30T05:03:50.011Z,77.70
2019-05-30T05:06:19.869Z,77.80
2019-05-30T05:08:49.673Z,78.00
2019-05-30T05:11:22.590Z,78.00
2019-05-30T05:13:49.986Z,78.00
2019-05-30T05:16:30.786Z,78.00
2019-05-30T05:18:50.581Z,78.00
2019-05-30T05:21:20.935Z,78.30
2019-05-30T05:23:50.330Z,78.30
2019-05-30T05:26:19.683Z,78.50
2019-05-30T05:28:49.236Z,78.50
2019-05-30T05:31:18.562Z,78.60
2019-05-30T05:33:56.298Z,78.50
2019-05-30T05:36:19.071Z,78.50
2019-05-30T05:38:48.309Z,78.70
2019-05-30T05:41:18.158Z,78.90
2019-05-30T05:43:47.905Z,78.70
2019-05-30T05:46:18.468Z,78.70
2019-05-30T05:48:47.862Z,78.80
2019-05-30T05:51:17.118Z,78.90
2019-05-30T05:53:46.439Z,78.90
2019-05-30T05:56:16.806Z,78.90
2019-05-30T05:58:46.258Z,79.10
2019-05-30T06:01:17.113Z,79.30
2019-05-30T06:03:46.667Z,79.00
2019-05-30T06:06:17.134Z,79.00
2019-05-30T06:08:46.492Z,79.20
2019-05-30T06:11:16.581Z,79.00
2019-05-30T06:13:45.961Z,79.00
2019-05-30T06:16:15.149Z,79.10
2019-05-30T06:18:44.411Z,79.20
2019-05-30T06:21:13.712Z,79.10
2019-05-30T06:23:45.556Z,79.20
2019-05-30T06:26:13.967Z,79.40
2019-05-30T06:28:43.299Z,79.40
2019-05-30T06:31:12.593Z,79.60
2019-05-30T06:33:41.810Z,79.70
2019-05-30T06:36:11.092Z,79.70
2019-05-30T06:38:40.504Z,79.70
2019-05-30T06:41:09.843Z,80.00
2019-05-30T06:43:39.456Z,80.10
2019-05-30T06:46:08.767Z,80.40
2019-05-30T06:48:38.021Z,80.30
2019-05-30T06:51:07.359Z,80.30
2019-05-30T06:53:36.695Z,80.60
2019-05-30T06:56:05.950Z,80.80
2019-05-30T06:58:47.981Z,81.00
2019-05-30T07:01:06.209Z,81.30
2019-05-30T07:03:36.011Z,81.20
2019-05-30T07:06:05.927Z,81.30
2019-05-30T07:08:35.493Z,81.60
2019-05-30T07:11:04.713Z,81.60
2019-05-30T07:13:33.945Z,81.70
2019-05-30T07:16:03.174Z,82.10
2019-05-30T07:18:36.186Z,82.40
2019-05-30T07:21:03.478Z,82.60
2019-05-30T07:23:34.032Z,82.60
2019-05-30T07:26:03.750Z,82.60
2019-05-30T07:28:34.186Z,82.70
2019-05-30T07:31:03.484Z,82.90
2019-05-30T07:33:33.037Z,83.00
2019-05-30T07:36:02.634Z,83.10
2019-05-30T07:38:32.635Z,82.70
2019-05-30T07:41:02.145Z,82.80
2019-05-30T07:43:32.352Z,82.70
2019-05-30T07:46:02.463Z,82.70
2019-05-30T07:48:32.394Z,82.70
2019-05-30T07:51:01.808Z,82.70
2019-05-30T07:53:31.123Z,82.80
2019-05-30T07:56:00.463Z,82.60
2019-05-30T07:58:29.753Z,82.40
2019-05-30T08:00:59.090Z,82.40
2019-05-30T08:03:28.458Z,82.40
2019-05-30T08:05:57.860Z,82.30
2019-05-30T08:08:28.138Z,82.50
2019-05-30T08:11:08.906Z,82.40
2019-05-30T08:13:29.024Z,82.40
2019-05-30T08:15:58.402Z,82.40
2019-05-30T08:18:27.705Z,82.20
2019-05-30T08:20:57.094Z,82.30
2019-05-30T08:23:26.496Z,82.30
2019-05-30T08:25:56.660Z,82.40
2019-05-30T08:28:26.026Z,82.40
2019-05-30T08:30:56.951Z,82.50
2019-05-30T08:33:26.446Z,82.40
2019-05-30T08:35:55.806Z,82.20
2019-05-30T08:38:25.119Z,82.30
2019-05-30T08:40:54.392Z,82.30
2019-05-30T08:43:24.448Z,82.10
2019-05-30T08:45:53.742Z,82.10
2019-05-30T08:48:23.237Z,81.90
2019-05-30T08:50:52.729Z,81.70
2019-05-30T08:53:22.050Z,81.50
2019-05-30T08:55:51.373Z,81.80
2019-05-30T08:58:20.642Z,81.50
2019-05-30T09:00:49.940Z,81.70
2019-05-30T09:03:19.338Z,82.20
2019-05-30T09:06:02.533Z,82.20
2019-05-30T09:08:19.587Z,82.20
2019-05-30T09:10:48.793Z,82.20
2019-05-30T09:13:18.115Z,82.30
2019-05-30T09:15:47.362Z,82.10
2019-05-30T09:18:16.564Z,82.80
2019-05-30T09:20:45.865Z,82.20
2019-05-30T09:23:15.166Z,82.20
2019-05-30T09:25:46.882Z,82.50
2019-05-30T09:28:15.516Z,82.70
2019-05-30T09:30:44.827Z,83.00
2019-05-30T09:33:14.200Z,83.00
2019-05-30T09:35:44.825Z,83.00
2019-05-30T09:38:14.204Z,83.30
2019-05-30T09:40:43.675Z,83.40
2019-05-30T09:43:12.899Z,83.50
2019-05-30T09:45:42.372Z,83.80
2019-05-30T09:48:11.775Z,84.00
2019-05-30T09:50:42.496Z,83.90
2019-05-30T09:53:12.239Z,84.00
2019-05-30T09:55:42.927Z,84.00
2019-05-30T09:58:12.556Z,83.70
2019-05-30T10:00:43.040Z,83.50
2019-05-30T10:03:12.813Z,83.40
2019-05-30T10:05:43.266Z,83.30
2019-05-30T10:08:13.032Z,83.10
2019-05-30T10:10:43.819Z,83.10
2019-05-30T10:13:13.230Z,83.30
2019-05-30T10:15:42.613Z,83.30
2019-05-30T10:18:11.930Z,83.00
2019-05-30T10:20:41.259Z,82.80
2019-05-30T10:23:10.615Z,82.80
2019-05-30T10:25:39.931Z,82.80
2019-05-30T10:28:09.137Z,82.90
2019-05-30T10:30:38.361Z,82.90
2019-05-30T10:33:07.674Z,82.30
2019-05-30T10:35:37.102Z,82.50
2019-05-30T10:38:06.389Z,82.10
2019-05-30T10:40:35.632Z,81.80
2019-05-30T10:43:08.270Z,81.50
2019-05-30T10:45:38.578Z,80.80
2019-05-30T10:48:06.797Z,80.50
2019-05-30T10:50:36.103Z,79.90
2019-05-30T10:53:05.469Z,79.80
2019-05-30T10:55:40.740Z,79.60
2019-05-30T10:58:14.674Z,79.30
2019-05-30T11:00:51.316Z,79.10
2019-05-30T11:03:22.785Z,79.00
2019-05-30T11:06:15.481Z,78.90
2019-05-30T11:08:46.213Z,78.50
2019-05-30T11:11:16.316Z,78.00
2019-05-30T11:13:46.885Z,77.80
2019-05-30T11:16:16.183Z,77.80
2019-05-30T11:18:45.415Z,77.70
2019-05-30T11:21:14.698Z,77.60
2019-05-30T11:23:44.006Z,77.60
2019-05-30T11:26:13.215Z,77.40
2019-05-30T11:28:42.536Z,77.30
2019-05-30T11:31:12.016Z,76.80
2019-05-30T11:33:41.368Z,77.10
2019-05-30T11:36:10.736Z,76.70
2019-05-30T11:38:40.012Z,76.00
2019-05-30T11:41:09.268Z,75.30
2019-05-30T11:43:38.465Z,74.50
2019-05-30T11:46:07.765Z,74.40
2019-05-30T11:48:37.056Z,74.40
2019-05-30T11:51:06.324Z,74.30
2019-05-30T11:53:35.625Z,74.30
2019-05-30T11:56:04.841Z,74.00
2019-05-30T11:58:34.097Z,74.00
2019-05-30T12:01:03.392Z,73.90
2019-05-30T12:03:32.707Z,73.80
2019-05-30T12:06:01.912Z,73.70
2019-05-30T12:08:31.303Z,73.60
2019-05-30T12:11:01.393Z,73.10
2019-05-30T12:13:30.844Z,72.60
2019-05-30T12:16:01.658Z,72.40
2019-05-30T12:18:31.110Z,72.30
2019-05-30T12:21:01.874Z,72.10
2019-05-30T12:23:31.335Z,72.30
2019-05-30T12:26:00.538Z,72.20
2019-05-30T12:28:29.746Z,72.00
2019-05-30T12:31:03.204Z,71.90
2019-05-30T12:33:30.009Z,71.50
2019-05-30T12:36:00.439Z,71.40
2019-05-30T12:38:29.982Z,71.00
2019-05-30T12:40:59.267Z,70.70
2019-05-30T12:43:28.495Z,70.50
2019-05-30T12:45:59.022Z,70.40
2019-05-30T12:48:28.437Z,70.30
2019-05-30T12:50:57.780Z,70.40
2019-05-30T12:53:29.987Z,70.40
2019-05-30T12:56:00.362Z,69.60
2019-05-30T12:58:29.857Z,69.10
2019-05-30T13:00:59.067Z,68.40
2019-05-30T13:03:28.298Z,68.10
2019-05-30T13:05:59.081Z,67.70
2019-05-30T13:08:28.456Z,67.10
2019-05-30T13:10:57.769Z,66.60
2019-05-30T13:13:26.972Z,66.30
2019-05-30T13:15:56.565Z,65.70
2019-05-30T13:18:25.902Z,65.00
2019-05-30T13:20:58.281Z,64.30
2019-05-30T13:23:27.504Z,64.30
2019-05-30T13:25:57.511Z,63.90
2019-05-30T13:28:26.919Z,63.30
2019-05-30T13:30:56.237Z,63.00
2019-05-30T13:33:25.595Z,62.80
2019-05-30T13:35:54.875Z,63.00
2019-05-30T13:38:26.739Z,63.20
2019-05-30T13:40:55.096Z,63.20
2019-05-30T13:43:27.762Z,63.10
2019-05-30T13:45:55.371Z,62.80
2019-05-30T13:48:24.662Z,62.90
2019-05-30T13:50:53.937Z,63.10
2019-05-30T13:53:23.213Z,62.80
2019-05-30T13:55:52.501Z,62.40
2019-05-30T13:58:21.835Z,62.10
2019-05-30T14:00:51.171Z,61.80
2019-05-30T14:03:20.502Z,61.60
2019-05-30T14:05:49.705Z,61.40
2019-05-30T14:08:18.915Z,60.90
2019-05-30T14:10:48.160Z,60.00
2019-05-30T14:13:17.437Z,59.60
2019-05-30T14:15:46.643Z,59.50
2019-05-30T14:18:15.893Z,58.60
2019-05-30T14:20:45.087Z,58.00
2019-05-30T14:23:14.379Z,58.20
2019-05-30T14:25:43.636Z,57.80
2019-05-30T14:28:12.923Z,57.60
2019-05-30T14:30:42.268Z,56.80
2019-05-30T14:33:12.323Z,56.80
2019-05-30T14:35:41.738Z,56.40
2019-05-30T14:38:10.966Z,56.00
2019-05-30T14:40:40.193Z,56.10
2019-05-30T14:43:09.411Z,56.10
2019-05-30T14:45:38.667Z,55.90
2019-05-30T14:48:08.617Z,56.20
2019-05-30T14:50:38.038Z,56.20
2019-05-30T14:53:07.330Z,56.10
2019-05-30T14:55:36.556Z,55.50
2019-05-30T14:58:07.047Z,55.70
2019-05-30T15:00:36.459Z,55.90
2019-05-30T15:03:09.240Z,54.90
2019-05-30T15:05:36.785Z,53.40
2019-05-30T15:08:06.482Z,52.30
2019-05-30T15:10:35.855Z,51.30
2019-05-30T15:13:05.446Z,50.60
2019-05-30T15:15:34.764Z,50.70
2019-05-30T15:18:05.121Z,50.20
2019-05-30T15:20:34.498Z,48.80
2019-05-30T15:23:03.786Z,49.20
2019-05-30T15:25:33.088Z,48.60
2019-05-30T15:28:02.359Z,48.00
2019-05-30T15:30:31.664Z,47.70
2019-05-30T15:33:00.888Z,47.20
2019-05-30T15:35:30.136Z,46.80
2019-05-30T15:37:59.468Z,47.00
2019-05-30T15:40:28.735Z,47.30
2019-05-30T15:42:58.084Z,47.20
2019-05-30T15:45:27.348Z,47.40
2019-05-30T15:47:56.734Z,47.10
2019-05-30T15:50:26.132Z,47.30
2019-05-30T15:52:55.431Z,47.30
2019-05-30T15:55:24.787Z,47.40
2019-05-30T15:57:54.091Z,47.40
2019-05-30T16:00:23.498Z,47.00
2019-05-30T16:02:52.825Z,46.70
2019-05-30T16:05:22.143Z,46.90
2019-05-30T16:07:51.668Z,47.00
2019-05-30T16:10:21.142Z,47.30
2019-05-30T16:12:50.453Z,46.70
2019-05-30T16:15:19.811Z,46.70
2019-05-30T16:17:49.010Z,46.50
2019-05-30T16:20:19.921Z,46.40
2019-05-30T16:22:49.244Z,46.20
2019-05-30T16:25:19.602Z,46.10
2019-05-30T16:27:48.934Z,46.20
2019-05-30T16:30:22.418Z,46.30
2019-05-30T16:32:49.613Z,46.60
2019-05-30T16:35:20.198Z,46.70
2019-05-30T16:37:49.617Z,46.90
2019-05-30T16:40:18.953Z,47.50
2019-05-30T16:42:48.646Z,47.60
2019-05-30T16:45:21.892Z,47.90
2019-05-30T16:47:49.497Z,48.20
2019-05-30T16:50:22.793Z,48.80
2019-05-30T16:52:52.319Z,49.00
2019-05-30T16:55:21.667Z,49.30
2019-05-30T16:57:50.978Z,49.80
2019-05-30T17:00:21.925Z,50.10
2019-05-30T17:02:51.220Z,50.60
2019-05-30T17:05:20.433Z,51.00
2019-05-30T17:07:49.666Z,51.10
2019-05-30T17:10:26.695Z,50.70
2019-05-30T17:12:50.030Z,51.00
2019-05-30T17:15:20.008Z,51.20
2019-05-30T17:17:49.289Z,51.20
2019-05-30T17:20:18.843Z,51.20
2019-05-30T17:22:48.133Z,51.00
2019-05-30T17:25:17.524Z,51.00
2019-05-30T17:27:46.880Z,51.00
2019-05-30T17:30:17.488Z,50.70
2019-05-30T17:32:46.763Z,50.60
2019-05-30T17:35:16.354Z,50.00
2019-05-30T17:37:45.745Z,49.50
2019-05-30T17:40:16.352Z,49.10
2019-05-30T17:42:45.555Z,49.20
2019-05-30T17:45:15.307Z,49.20
2019-05-30T17:47:44.518Z,49.40
2019-05-30T17:50:13.985Z,49.30
2019-05-30T17:52:43.344Z,49.40
2019-05-30T17:55:12.608Z,49.70
2019-05-30T17:57:41.858Z,50.00
2019-05-30T18:00:12.099Z,50.30
2019-05-30T18:02:41.359Z,50.60
2019-05-30T18:05:11.407Z,50.60
2019-05-30T18:07:40.779Z,50.50
2019-05-30T18:10:10.790Z,50.30
2019-05-30T18:12:39.972Z,49.90
2019-05-30T18:15:09.779Z,49.80
2019-05-30T18:17:38.991Z,49.70
2019-05-30T18:20:08.972Z,49.80
2019-05-30T18:22:38.387Z,50.00
2019-05-30T18:25:10.205Z,50.40
2019-05-30T18:27:39.429Z,50.60
2019-05-30T18:30:09.987Z,50.90
2019-05-30T18:32:39.231Z,50.90
2019-05-30T18:35:08.831Z,51.00
2019-05-30T18:37:38.566Z,51.30
2019-05-30T18:40:08.440Z,51.50
2019-05-30T18:42:37.805Z,51.80
2019-05-30T18:45:07.760Z,52.20
2019-05-30T18:47:36.987Z,52.50
2019-05-30T18:50:07.111Z,52.70
2019-05-30T18:52:36.841Z,52.80
2019-05-30T18:55:07.102Z,53.10
2019-05-30T18:57:38.389Z,53.30
2019-05-30T19:00:08.453Z,53.60
2019-05-30T19:02:39.108Z,53.80
2019-05-30T19:05:09.186Z,54.10
2019-05-30T19:07:38.487Z,54.30
2019-05-30T19:10:09.023Z,54.50
2019-05-30T19:12:38.388Z,54.60
2019-05-30T19:15:08.109Z,54.80
2019-05-30T19:17:37.361Z,54.90
2019-05-30T19:20:07.180Z,55.00
2019-05-30T19:22:36.749Z,55.20
2019-05-30T19:25:06.378Z,55.30
2019-05-30T19:27:37.991Z,55.30
2019-05-30T19:30:07.089Z,55.50
2019-05-30T19:32:36.950Z,55.70
2019-05-30T19:35:06.534Z,55.90
2019-05-30T19:37:37.435Z,56.00
2019-05-30T19:40:09.802Z,56.10
2019-05-30T19:42:39.132Z,56.30
2019-05-30T19:45:09.122Z,56.50
2019-05-30T19:47:38.854Z,56.60
2019-05-30T19:50:08.756Z,56.80
2019-05-30T19:52:39.111Z,56.90
2019-05-30T19:55:08.937Z,57.10
2019-05-30T19:57:39.755Z,57.20
2019-05-30T20:00:09.781Z,57.20
2019-05-30T20:02:40.361Z,57.40
2019-05-30T20:05:10.029Z,57.70
2019-05-30T20:07:39.269Z,57.70
2019-05-30T20:10:13.490Z,57.80
2019-05-30T20:12:42.873Z,57.80
2019-05-30T20:15:13.575Z,58.10
2019-05-30T20:17:42.945Z,58.20
2019-05-30T20:20:13.030Z,58.20
2019-05-30T20:22:42.508Z,58.20
2019-05-30T20:25:15.305Z,58.30
2019-05-30T20:27:44.783Z,58.40
2019-05-30T20:30:16.379Z,58.50
2019-05-30T20:32:46.955Z,58.60
2019-05-30T20:35:17.977Z,58.80
2019-05-30T20:37:49.441Z,58.80
2019-05-30T20:40:19.428Z,58.80
2019-05-30T20:42:49.898Z,59.10
2019-05-30T20:45:19.543Z,59.40
2019-05-30T20:47:48.770Z,59.60
2019-05-30T20:50:18.988Z,59.70
2019-05-30T20:52:48.303Z,59.80
2019-05-30T20:55:18.674Z,60.00
2019-05-30T20:57:48.189Z,60.00
2019-05-30T21:00:18.350Z,60.20
2019-05-30T21:02:49.449Z,60.30
2019-05-30T21:05:19.054Z,60.60
2019-05-30T21:07:50.626Z,60.90
2019-05-30T21:10:21.350Z,60.80
2019-05-30T21:12:52.684Z,61.00
2019-05-30T21:15:22.975Z,61.20
2019-05-30T21:17:53.864Z,61.40
2019-05-30T21:20:23.129Z,61.60
2019-05-30T21:22:52.393Z,61.50
2019-05-30T21:25:21.686Z,61.60
2019-05-30T21:27:51.002Z,61.60
2019-05-30T21:30:20.631Z,61.70
2019-05-30T21:32:49.923Z,61.90
2019-05-30T21:35:19.228Z,62.00
2019-05-30T21:37:48.564Z,62.10
2019-05-30T21:40:17.885Z,62.30
2019-05-30T21:43:02.905Z,62.20
2019-05-30T21:45:18.094Z,62.20
2019-05-30T21:47:47.318Z,62.40
2019-05-30T21:50:18.165Z,62.50
2019-05-30T21:52:48.007Z,62.60
2019-05-30T21:55:17.497Z,62.60
2019-05-30T21:57:48.028Z,62.80
2019-05-30T22:00:20.928Z,62.80
2019-05-30T22:02:54.324Z,62.80
2019-05-30T22:05:23.962Z,62.60
2019-05-30T22:07:53.292Z,62.80
2019-05-30T22:10:22.490Z,62.60
2019-05-30T22:12:51.859Z,62.40
2019-05-30T22:15:21.297Z,62.20
2019-05-30T22:17:50.623Z,62.10
2019-05-30T22:20:19.877Z,62.00
2019-05-30T22:22:50.161Z,61.90
2019-05-30T22:25:19.529Z,61.80
2019-05-30T22:27:49.019Z,61.60
2019-05-30T22:30:18.344Z,61.30
2019-05-30T22:32:48.644Z,61.30
2019-05-30T22:35:17.964Z,61.30
2019-05-30T22:37:47.315Z,61.30
2019-05-30T22:40:16.639Z,61.20
2019-05-30T22:42:46.281Z,61.10
2019-05-30T22:45:16.935Z,61.10
2019-05-30T22:47:46.404Z,61.00
2019-05-30T22:50:15.928Z,61.00
2019-05-30T22:52:45.267Z,61.20
2019-05-30T22:55:14.434Z,61.20
2019-05-30T22:57:44.367Z,61.20
2019-05-30T23:00:13.850Z,61.20
2019-05-30T23:02:43.390Z,61.20
2019-05-30T23:05:12.682Z,61.40
2019-05-30T23:07:41.866Z,61.50
2019-05-30T23:10:11.098Z,61.50
2019-05-30T23:12:43.350Z,61.70
2019-05-30T23:15:11.251Z,61.70
2019-05-30T23:17:40.440Z,61.60
2019-05-30T23:20:09.703Z,61.60
2019-05-30T23:22:38.910Z,61.70
2019-05-30T23:25:08.314Z,61.30
2019-05-30T23:27:37.534Z,61.30
2019-05-30T23:30:07.371Z,61.20
2019-05-30T23:32:36.576Z,61.10
2019-05-30T23:35:06.396Z,61.00
2019-05-30T23:37:35.573Z,61.00
2019-05-30T23:40:05.368Z,60.80
2019-05-30T23:42:34.618Z,60.70
2019-05-30T23:45:04.125Z,60.60
2019-05-30T23:47:33.437Z,60.70
2019-05-30T23:50:02.745Z,60.70
2019-05-30T23:52:32.223Z,60.90
2019-05-30T23:55:02.265Z,60.90
2019-05-30T23:57:31.799Z,61.10
